createdAt,value
2023-02-08T00:01:25.901Z,42.40
2023-02-08T00:08:15.249Z,37.40
2023-02-08T00:10:43.962Z,47.60
2023-02-08T00:13:12.397Z,40.50
2023-02-08T00:15:44.959Z,43.30
2023-02-08T00:18:15.408Z,39.40
2023-02-08T00:20:43.730Z,44.00
2023-02-08T00:23:12.837Z,41.30
2023-02-08T00:25:41.446Z,40.70
2023-02-08T00:28:13.790Z,43.80
2023-02-08T00:30:43.683Z,39.70
2023-02-08T00:33:12.225Z,38.20
2023-02-08T00:35:42.485Z,38.90
2023-02-08T00:38:10.733Z,39.40
2023-02-08T00:40:39.502Z,42.10
2023-02-08T00:43:08.119Z,37.20
2023-02-08T00:45:36.877Z,32.10
2023-02-08T00:48:05.092Z,40.00
2023-02-08T00:50:33.377Z,35.60
2023-02-08T00:53:01.832Z,37.50
2023-02-08T00:55:30.097Z,50.60
2023-02-08T00:57:58.987Z,38.50
2023-02-08T01:00:27.222Z,36.50
2023-02-08T01:02:55.453Z,41.20
2023-02-08T01:05:23.669Z,39.00
2023-02-08T01:07:51.955Z,40.50
2023-02-08T01:10:20.094Z,44.20
2023-02-08T01:12:49.988Z,43.90
2023-02-08T01:15:18.348Z,46.30
2023-02-08T01:17:46.651Z,45.00
2023-02-08T01:20:16.590Z,43.30
2023-02-08T01:22:45.133Z,37.70
2023-02-08T01:25:15.855Z,37.80
2023-02-08T01:27:44.557Z,42.10
2023-02-08T01:30:14.214Z,37.00
2023-02-08T01:32:43.275Z,40.90
2023-02-08T01:35:11.426Z,46.30
2023-02-08T01:37:39.715Z,43.20
2023-02-08T01:40:08.233Z,53.20
2023-02-08T01:42:37.046Z,40.40
2023-02-08T01:45:23.821Z,47.40
2023-02-08T01:48:03.625Z,43.80
2023-02-08T01:50:36.863Z,46.80
2023-02-08T01:53:05.043Z,49.20
2023-02-08T01:55:36.157Z,41.80
2023-02-08T01:58:05.952Z,53.50
2023-02-08T02:00:34.611Z,46.60
2023-02-08T02:03:02.818Z,44.80
2023-02-08T02:05:39.918Z,44.40
2023-02-08T02:08:09.374Z,51.80
2023-02-08T02:10:38.493Z,48.10
2023-02-08T02:13:12.277Z,45.50
2023-02-08T02:15:44.686Z,44.60
2023-02-08T02:18:14.365Z,47.60
2023-02-08T02:21:14.924Z,40.00
2023-02-08T02:24:05.554Z,44.30
2023-02-08T02:27:02.965Z,45.80
2023-02-08T02:29:40.161Z,47.90
2023-02-08T02:32:17.409Z,39.10
2023-02-08T02:35:10.808Z,39.70
2023-02-08T02:37:43.561Z,38.60
2023-02-08T02:40:45.571Z,53.20
2023-02-08T02:43:41.523Z,45.90
2023-02-08T02:46:48.980Z,48.10
2023-02-08T02:49:17.124Z,44.00
2023-02-08T02:51:57.889Z,45.40
2023-02-08T02:54:44.156Z,44.30
2023-02-08T02:57:15.116Z,43.80
2023-02-08T02:59:45.388Z,44.40
2023-02-08T03:02:14.061Z,44.30
2023-02-08T03:04:42.480Z,43.60
2023-02-08T03:07:19.990Z,48.60
2023-02-08T03:09:54.121Z,43.10
2023-02-08T03:12:22.360Z,48.20
2023-02-08T03:15:11.373Z,40.80
2023-02-08T03:18:21.685Z,42.30
2023-02-08T03:20:58.722Z,41.90
2023-02-08T03:23:41.188Z,45.60
2023-02-08T03:26:31.181Z,50.30
2023-02-08T03:29:23.493Z,45.00
2023-02-08T03:32:01.323Z,54.90
2023-02-08T03:34:46.440Z,50.30
2023-02-08T03:37:20.063Z,45.70
2023-02-08T03:39:49.754Z,50.50
2023-02-08T03:42:21.863Z,57.60
2023-02-08T03:44:59.276Z,52.10
2023-02-08T03:47:29.287Z,44.20
2023-02-08T03:49:59.373Z,42.60
2023-02-08T03:52:28.663Z,52.70
2023-02-08T03:55:06.176Z,47.50
2023-02-08T03:57:48.494Z,48.90
2023-02-08T04:00:17.389Z,49.30
2023-02-08T04:02:56.159Z,47.50
2023-02-08T04:05:24.372Z,47.90
2023-02-08T04:07:53.212Z,45.40
2023-02-08T04:10:21.412Z,50.50
2023-02-08T04:12:50.144Z,51.50
2023-02-08T04:15:18.514Z,52.60
2023-02-08T04:17:47.394Z,52.00
2023-02-08T04:20:15.701Z,56.40
2023-02-08T04:22:47.032Z,47.50
2023-02-08T04:25:15.328Z,45.40
2023-02-08T04:27:43.580Z,47.30
2023-02-08T04:30:12.341Z,48.60
2023-02-08T04:32:42.816Z,49.50
2023-02-08T04:35:10.943Z,54.30
2023-02-08T04:37:39.124Z,42.50
2023-02-08T04:40:07.646Z,48.60
2023-02-08T04:42:35.839Z,44.20
2023-02-08T04:45:04.066Z,54.00
2023-02-08T04:47:32.914Z,56.70
2023-02-08T04:50:01.363Z,49.60
2023-02-08T04:52:30.255Z,55.80
2023-02-08T04:54:58.607Z,45.70
2023-02-08T04:57:26.780Z,51.70
2023-02-08T04:59:55.474Z,60.70
2023-02-08T05:02:23.562Z,48.90
2023-02-08T05:04:51.735Z,54.70
2023-02-08T05:07:19.896Z,43.80
2023-02-08T05:09:47.968Z,45.20
2023-02-08T05:12:19.124Z,55.80
2023-02-08T05:14:47.549Z,51.60
2023-02-08T05:17:15.766Z,51.90
2023-02-08T05:19:44.235Z,54.00
2023-02-08T05:22:12.521Z,49.10
2023-02-08T05:24:41.283Z,48.30
2023-02-08T05:27:09.552Z,45.90
2023-02-08T05:29:38.025Z,45.40
2023-02-08T05:32:06.785Z,51.20
2023-02-08T05:34:37.572Z,56.80
2023-02-08T05:37:06.085Z,53.40
2023-02-08T05:39:34.254Z,47.00
2023-02-08T05:42:02.319Z,54.00
2023-02-08T05:44:31.091Z,55.80
2023-02-08T05:46:59.279Z,57.10
2023-02-08T05:49:27.438Z,53.60
2023-02-08T05:51:55.831Z,52.00
2023-02-08T05:54:24.043Z,51.80
2023-02-08T05:56:52.375Z,51.90
2023-02-08T05:59:20.699Z,52.80
2023-02-08T06:01:49.522Z,55.10
2023-02-08T06:04:17.680Z,55.20
2023-02-08T06:06:45.906Z,50.20
2023-02-08T06:09:15.512Z,60.00
2023-02-08T06:11:44.094Z,48.90
2023-02-08T06:14:14.003Z,49.70
2023-02-08T06:16:42.588Z,70.10
2023-02-08T06:19:10.909Z,55.30
2023-02-08T06:21:39.229Z,55.60
2023-02-08T06:24:07.595Z,57.40
2023-02-08T06:26:35.957Z,51.90
2023-02-08T06:29:04.707Z,54.40
2023-02-08T06:31:33.405Z,50.20
2023-02-08T06:34:01.880Z,54.60
2023-02-08T06:36:30.249Z,52.50
2023-02-08T06:38:58.482Z,51.60
2023-02-08T06:41:27.343Z,48.80
2023-02-08T06:43:55.499Z,56.70
2023-02-08T06:46:23.612Z,59.30
2023-02-08T06:48:52.032Z,59.40
2023-02-08T06:51:20.572Z,54.00
2023-02-08T06:53:49.185Z,67.70
2023-02-08T06:56:17.738Z,55.50
2023-02-08T06:58:46.239Z,54.30
2023-02-08T07:01:14.763Z,48.10
2023-02-08T07:03:43.709Z,56.30
2023-02-08T07:06:13.664Z,50.30
2023-02-08T07:08:42.339Z,57.80
2023-02-08T07:11:15.537Z,49.70
2023-02-08T07:13:47.754Z,55.20
2023-02-08T07:16:16.106Z,51.90
2023-02-08T07:18:44.292Z,54.60
2023-02-08T07:21:12.430Z,54.50
2023-02-08T07:23:41.495Z,57.00
2023-02-08T07:26:12.108Z,49.30
2023-02-08T07:28:40.775Z,51.40
2023-02-08T07:31:10.440Z,52.10
2023-02-08T07:33:38.825Z,59.30
2023-02-08T07:36:07.713Z,54.60
2023-02-08T07:38:36.552Z,49.00
2023-02-08T07:41:08.983Z,56.80
2023-02-08T07:43:38.480Z,60.00
2023-02-08T07:46:11.053Z,56.90
2023-02-08T07:48:40.446Z,58.20
2023-02-08T07:51:09.070Z,58.90
2023-02-08T07:53:38.773Z,59.70
2023-02-08T07:56:07.233Z,63.80
2023-02-08T07:58:35.999Z,73.50
2023-02-08T08:01:19.726Z,68.90
2023-02-08T08:03:51.003Z,66.00
2023-02-08T08:06:20.348Z,58.00
2023-02-08T08:08:49.926Z,64.30
2023-02-08T08:11:18.574Z,60.90
2023-02-08T08:13:47.965Z,62.60
2023-02-08T08:16:16.642Z,68.00
2023-02-08T08:18:49.584Z,63.20
2023-02-08T08:21:18.049Z,59.90
2023-02-08T08:23:46.240Z,65.50
2023-02-08T08:26:16.645Z,58.00
2023-02-08T08:28:46.893Z,66.00
2023-02-08T08:31:17.408Z,56.30
2023-02-08T08:33:45.975Z,65.80
2023-02-08T08:36:14.445Z,63.90
2023-02-08T08:38:43.137Z,59.40
2023-02-08T08:41:12.928Z,57.60
2023-02-08T08:43:41.992Z,59.50
2023-02-08T08:46:10.392Z,56.20
2023-02-08T08:48:39.213Z,61.40
2023-02-08T08:51:07.718Z,66.40
2023-02-08T08:53:37.293Z,63.70
2023-02-08T08:56:06.750Z,64.70
2023-02-08T08:58:34.947Z,54.40
2023-02-08T09:01:03.681Z,56.90
2023-02-08T09:03:32.007Z,58.90
2023-02-08T09:06:00.426Z,64.40
2023-02-08T09:08:29.119Z,68.00
2023-02-08T09:10:57.881Z,62.40
2023-02-08T09:13:26.143Z,59.10
2023-02-08T09:15:54.845Z,59.70
2023-02-08T09:18:23.015Z,51.60
2023-02-08T09:20:51.298Z,62.30
2023-02-08T09:23:19.465Z,56.30
2023-02-08T09:25:49.842Z,57.60
2023-02-08T09:28:18.408Z,56.80
2023-02-08T09:30:46.698Z,58.90
2023-02-08T09:33:15.132Z,61.10
2023-02-08T09:35:43.441Z,54.40
2023-02-08T09:38:11.865Z,57.40
2023-02-08T09:40:48.686Z,59.60
2023-02-08T09:43:24.719Z,56.00
2023-02-08T09:46:01.683Z,55.30
2023-02-08T09:48:35.130Z,54.60
2023-02-08T09:51:09.101Z,50.40
2023-02-08T09:54:03.450Z,55.90
2023-02-08T09:56:40.405Z,57.40
2023-02-08T09:59:29.837Z,60.30
2023-02-08T10:02:23.704Z,59.50
2023-02-08T10:05:00.023Z,56.90
2023-02-08T10:07:28.839Z,51.20
2023-02-08T10:09:58.954Z,53.90
2023-02-08T10:12:37.201Z,57.90
2023-02-08T10:15:08.727Z,50.90
2023-02-08T10:17:58.140Z,67.50
2023-02-08T10:20:32.721Z,56.80
2023-02-08T10:23:29.471Z,56.50
2023-02-08T10:26:10.207Z,53.10
2023-02-08T10:29:06.200Z,53.50
2023-02-08T10:32:08.485Z,60.00
2023-02-08T10:34:59.028Z,56.20
2023-02-08T10:37:34.654Z,59.70
2023-02-08T10:40:16.900Z,55.50
2023-02-08T10:42:47.661Z,58.60
2023-02-08T10:45:29.597Z,53.30
2023-02-08T10:48:03.443Z,62.10
2023-02-08T10:50:38.341Z,68.50
2023-02-08T10:53:06.633Z,56.00
2023-02-08T10:55:36.577Z,57.50
2023-02-08T10:58:14.429Z,52.50
2023-02-08T11:00:43.104Z,57.50
2023-02-08T11:03:28.569Z,53.70
2023-02-08T11:05:57.397Z,51.00
2023-02-08T11:08:27.922Z,56.90
2023-02-08T11:11:07.491Z,46.40
2023-02-08T11:13:40.516Z,54.50
2023-02-08T11:16:27.155Z,44.60
2023-02-08T11:18:59.486Z,46.00
2023-02-08T11:21:40.480Z,47.50
2023-02-08T11:24:15.229Z,56.00
2023-02-08T11:26:43.446Z,53.40
2023-02-08T11:29:16.594Z,48.40
2023-02-08T11:32:02.423Z,46.20
2023-02-08T11:34:35.777Z,44.80
2023-02-08T11:37:05.453Z,42.90
2023-02-08T11:39:40.164Z,43.50
2023-02-08T11:42:09.773Z,51.70
2023-02-08T11:44:42.505Z,55.60
2023-02-08T11:47:11.052Z,48.80
2023-02-08T11:49:41.209Z,51.90
2023-02-08T11:52:20.222Z,44.00
2023-02-08T11:54:48.562Z,48.50
2023-02-08T11:57:24.847Z,45.60
2023-02-08T11:59:53.007Z,41.20
2023-02-08T12:02:24.471Z,53.20
2023-02-08T12:04:52.649Z,47.10
2023-02-08T12:07:45.440Z,46.20
2023-02-08T12:10:19.134Z,47.20
2023-02-08T12:13:06.003Z,43.00
2023-02-08T12:15:57.391Z,50.70
2023-02-08T12:18:30.271Z,43.90
2023-02-08T12:21:11.552Z,42.50
2023-02-08T12:23:59.030Z,48.50
2023-02-08T12:26:37.566Z,46.60
2023-02-08T12:29:33.166Z,47.90
2023-02-08T12:32:30.823Z,47.20
2023-02-08T12:35:43.606Z,41.10
2023-02-08T12:38:38.383Z,44.00
2023-02-08T12:41:27.919Z,41.70
2023-02-08T12:44:02.411Z,42.50
2023-02-08T12:47:03.796Z,42.40
2023-02-08T12:49:51.168Z,48.60
2023-02-08T12:52:29.344Z,41.70
2023-02-08T12:55:06.451Z,49.40
2023-02-08T12:57:34.693Z,40.90
2023-02-08T13:00:21.414Z,40.90
2023-02-08T13:03:14.694Z,40.70
2023-02-08T13:05:53.472Z,40.40
2023-02-08T13:08:59.369Z,38.90
2023-02-08T16:22:16.778Z,46.90
2023-02-08T16:24:47.848Z,37.90
2023-02-08T16:27:26.475Z,39.40
2023-02-08T16:29:54.981Z,33.60
2023-02-08T16:32:30.053Z,32.80
2023-02-08T16:34:58.207Z,36.00
2023-02-08T16:37:31.004Z,40.50
2023-02-08T16:39:59.798Z,38.70
2023-02-08T16:42:36.940Z,30.10
2023-02-08T16:45:07.784Z,34.30
2023-02-08T16:47:36.823Z,31.00
2023-02-08T16:50:08.821Z,36.10
2023-02-08T16:52:37.508Z,37.70
2023-02-08T16:55:06.215Z,37.90
2023-02-08T16:57:51.247Z,32.10
2023-02-08T17:00:24.943Z,42.00
2023-02-08T17:02:53.574Z,36.00
2023-02-08T17:05:22.782Z,38.70
2023-02-08T17:07:51.146Z,44.60
2023-02-08T17:10:28.928Z,36.20
2023-02-08T17:13:13.248Z,37.10
2023-02-08T17:15:47.510Z,44.90
2023-02-08T17:18:16.028Z,44.90
2023-02-08T17:20:45.283Z,40.00
2023-02-08T17:23:15.653Z,34.30
2023-02-08T17:25:44.225Z,38.00
2023-02-08T17:28:16.192Z,39.20
2023-02-08T17:30:44.862Z,36.00
2023-02-08T17:33:18.635Z,41.80
2023-02-08T17:35:49.473Z,42.70
2023-02-08T17:38:18.820Z,36.80
2023-02-08T17:40:47.185Z,36.90
2023-02-08T17:43:15.474Z,37.40
2023-02-08T17:45:44.846Z,40.70
2023-02-08T17:48:16.095Z,43.10
2023-02-08T17:50:48.020Z,43.30
2023-02-08T17:53:17.372Z,37.30
2023-02-08T17:55:45.938Z,36.30
2023-02-08T17:58:15.370Z,54.20
2023-02-08T18:00:43.844Z,47.70
2023-02-08T18:03:12.609Z,43.90
2023-02-08T18:05:40.741Z,47.00
2023-02-08T18:08:08.928Z,41.30
2023-02-08T18:10:37.142Z,49.10
2023-02-08T18:13:05.625Z,41.20
2023-02-08T18:15:34.173Z,45.40
2023-02-08T18:18:02.326Z,53.90
2023-02-08T18:20:30.605Z,55.80
2023-02-08T18:22:58.965Z,57.30
2023-02-08T18:25:27.370Z,53.70
2023-02-08T18:27:56.421Z,51.20
2023-02-08T18:30:26.285Z,54.60
2023-02-08T18:32:54.557Z,52.80
2023-02-08T18:35:23.139Z,60.90
2023-02-08T18:37:53.596Z,64.60
2023-02-08T18:40:21.850Z,52.20
2023-02-08T18:42:50.068Z,51.30
2023-02-08T18:45:18.189Z,49.00
2023-02-08T18:47:46.965Z,50.30
2023-02-08T18:50:15.265Z,61.40
2023-02-08T18:52:45.147Z,56.00
2023-02-08T18:55:13.601Z,53.70
2023-02-08T18:57:41.990Z,57.60
2023-02-08T19:00:11.076Z,50.60
2023-02-08T19:02:39.857Z,52.60
2023-02-08T19:05:08.306Z,49.30
2023-02-08T19:07:39.505Z,57.40
2023-02-08T19:10:08.249Z,59.90
2023-02-08T19:12:39.087Z,55.70
2023-02-08T19:15:08.010Z,56.80
2023-02-08T19:17:36.217Z,54.90
2023-02-08T19:20:04.713Z,63.10
2023-02-08T19:22:32.940Z,48.80
2023-02-08T19:25:01.179Z,55.40
2023-02-08T19:27:29.994Z,43.70
2023-02-08T19:29:58.541Z,42.80
2023-02-08T19:32:26.913Z,45.30
2023-02-08T19:34:55.268Z,47.20
2023-02-08T19:37:23.505Z,50.00
2023-02-08T19:39:51.600Z,46.90
2023-02-08T19:42:19.786Z,49.00
2023-02-08T19:44:47.939Z,50.40
2023-02-08T19:47:16.593Z,55.40
2023-02-08T19:49:45.279Z,58.10
2023-02-08T19:52:16.278Z,54.70
2023-02-08T19:54:44.881Z,53.50
2023-02-08T19:57:14.967Z,68.40
2023-02-08T19:59:43.607Z,57.80
2023-02-08T20:02:15.429Z,54.70
2023-02-08T20:04:44.121Z,55.90
2023-02-08T20:07:12.676Z,61.80
2023-02-08T20:09:41.736Z,64.00
2023-02-08T20:12:10.019Z,61.70
2023-02-08T20:14:38.367Z,61.00
2023-02-08T20:17:07.333Z,64.90
2023-02-08T20:19:37.292Z,60.60
2023-02-08T20:22:05.454Z,61.80
2023-02-08T20:24:33.699Z,61.20
2023-02-08T20:27:02.019Z,61.50
2023-02-08T20:29:30.903Z,61.10
2023-02-08T20:31:59.923Z,60.20
2023-02-08T20:34:28.698Z,70.00
2023-02-08T20:37:12.411Z,70.00
2023-02-08T20:39:41.214Z,67.00
2023-02-08T20:42:10.233Z,76.80
2023-02-08T20:44:38.464Z,110.00
2023-02-08T20:47:06.886Z,88.70
2023-02-08T20:49:35.291Z,89.70
2023-02-08T20:52:03.494Z,94.50
2023-02-08T20:54:31.803Z,92.30
2023-02-08T20:57:00.844Z,90.30
2023-02-08T20:59:30.361Z,93.10
2023-02-08T21:01:59.062Z,98.20
2023-02-08T21:04:30.248Z,103.70
2023-02-08T21:06:58.427Z,100.00
2023-02-08T21:09:26.677Z,90.80
2023-02-08T21:11:54.851Z,94.00
2023-02-08T21:14:23.637Z,92.00
2023-02-08T21:16:56.518Z,100.80
2023-02-08T21:19:29.347Z,89.30
2023-02-08T21:22:01.349Z,97.50
2023-02-08T21:24:29.741Z,90.70
2023-02-08T21:26:58.065Z,84.20
2023-02-08T21:29:26.497Z,97.10
2023-02-08T21:31:56.418Z,96.50
2023-02-08T21:34:24.788Z,94.70
2023-02-08T21:36:53.261Z,93.20
2023-02-08T21:39:23.341Z,82.10
2023-02-08T21:41:52.135Z,78.60
2023-02-08T21:44:20.354Z,85.90
2023-02-08T21:46:48.563Z,71.60
2023-02-08T21:49:35.549Z,70.70
2023-02-08T21:52:22.439Z,71.50
2023-02-08T21:54:53.745Z,74.00
2023-02-08T21:59:52.488Z,73.00
2023-02-08T22:02:24.713Z,72.10
2023-02-08T22:04:53.946Z,73.50
2023-02-08T22:07:23.024Z,86.60
